Terminal Aerodrome Forecast
Issued by NWS

Home | Current Version | Previous Version | Text Only | Print | Product List | Glossary On
Versions: 1 2 3 4 5 6 7 8 9 10 11 12 13 14
000
FTUS45 KABQ 271140
TAFTCC
TAF
KTCC 271140Z 2712/2812 27011KT P6SM SCT250
     FM271900 26018G28KT P6SM FEW130
     FM280200 03020G30KT P6SM SCT040
     FM280400 03027G39KT P6SM BKN040
     FM280800 03015G25KT P6SM SCT040
     FM281100 03010KT P6SM FEW040=

USA.gov is the U.S. government's official web portal to all federal, state and local government web resources and services.